sensor_id;sensor_type;location;lat;lon;timestamp;P1;durP1;ratioP1;P2;durP2;ratioP2
20906;SDS011;10613;50.966;5.814;2023-12-28T00:03:43;2.00;;;2.00;;
20906;SDS011;10613;50.966;5.814;2023-12-28T00:07:50;3.50;;;3.50;;
20906;SDS011;10613;50.966;5.814;2023-12-28T00:12:03;2.00;;;2.00;;
20906;SDS011;10613;50.966;5.814;2023-12-28T00:16:11;2.00;;;2.00;;
20906;SDS011;10613;50.966;5.814;2023-12-28T00:20:18;2.00;;;2.00;;
20906;SDS011;10613;50.966;5.814;2023-12-28T00:24:25;2.50;;;2.00;;
20906;SDS011;10613;50.966;5.814;2023-12-28T00:28:32;2.00;;;2.00;;
20906;SDS011;10613;50.966;5.814;2023-12-28T00:32:39;3.50;;;3.50;;
20906;SDS011;10613;50.966;5.814;2023-12-28T00:36:49;3.75;;;3.75;;
20906;SDS011;10613;50.966;5.814;2023-12-28T00:40:57;4.25;;;4.25;;
20906;SDS011;10613;50.966;5.814;2023-12-28T00:45:03;3.25;;;3.25;;
20906;SDS011;10613;50.966;5.814;2023-12-28T00:49:10;1.75;;;1.75;;
20906;SDS011;10613;50.966;5.814;2023-12-28T00:53:17;1.00;;;1.00;;
20906;SDS011;10613;50.966;5.814;2023-12-28T00:57:24;2.00;;;2.00;;
20906;SDS011;10613;50.966;5.814;2023-12-28T01:01:31;2.00;;;2.00;;
20906;SDS011;10613;50.966;5.814;2023-12-28T01:05:38;2.00;;;2.00;;
20906;SDS011;10613;50.966;5.814;2023-12-28T01:09:45;2.00;;;2.00;;
20906;SDS011;10613;50.966;5.814;2023-12-28T01:13:53;2.00;;;2.00;;
20906;SDS011;10613;50.966;5.814;2023-12-28T01:17:59;4.00;;;4.00;;
20906;SDS011;10613;50.966;5.814;2023-12-28T01:22:06;4.00;;;4.00;;
20906;SDS011;10613;50.966;5.814;2023-12-28T01:26:13;4.25;;;2.00;;
20906;SDS011;10613;50.966;5.814;2023-12-28T01:30:20;2.00;;;2.00;;
20906;SDS011;10613;50.966;5.814;2023-12-28T01:34:27;2.00;;;2.00;;
20906;SDS011;10613;50.966;5.814;2023-12-28T01:38:34;2.00;;;2.00;;
20906;SDS011;10613;50.966;5.814;2023-12-28T01:42:41;5.00;;;4.25;;
20906;SDS011;10613;50.966;5.814;2023-12-28T01:46:48;2.00;;;2.00;;
20906;SDS011;10613;50.966;5.814;2023-12-28T01:50:56;3.50;;;3.50;;
20906;SDS011;10613;50.966;5.814;2023-12-28T01:55:03;2.50;;;2.50;;
20906;SDS011;10613;50.966;5.814;2023-12-28T01:59:11;2.00;;;2.00;;
20906;SDS011;10613;50.966;5.814;2023-12-28T02:03:18;2.00;;;2.00;;
20906;SDS011;10613;50.966;5.814;2023-12-28T02:07:25;4.00;;;4.00;;
20906;SDS011;10613;50.966;5.814;2023-12-28T02:11:39;2.00;;;2.00;;
20906;SDS011;10613;50.966;5.814;2023-12-28T02:15:46;1.75;;;1.75;;
20906;SDS011;10613;50.966;5.814;2023-12-28T02:19:58;3.50;;;3.50;;
20906;SDS011;10613;50.966;5.814;2023-12-28T02:24:05;4.25;;;4.25;;
20906;SDS011;10613;50.966;5.814;2023-12-28T02:28:12;2.00;;;2.00;;
20906;SDS011;10613;50.966;5.814;2023-12-28T02:32:22;1.75;;;1.75;;
20906;SDS011;10613;50.966;5.814;2023-12-28T02:36:31;2.50;;;2.50;;
20906;SDS011;10613;50.966;5.814;2023-12-28T02:40:41;2.50;;;2.00;;
20906;SDS011;10613;50.966;5.814;2023-12-28T02:44:50;2.00;;;2.00;;
20906;SDS011;10613;50.966;5.814;2023-12-28T02:48:58;2.00;;;2.00;;
20906;SDS011;10613;50.966;5.814;2023-12-28T02:53:07;4.50;;;4.50;;
20906;SDS011;10613;50.966;5.814;2023-12-28T02:57:13;4.00;;;2.00;;
20906;SDS011;10613;50.966;5.814;2023-12-28T03:01:24;1.75;;;1.75;;
20906;SDS011;10613;50.966;5.814;2023-12-28T03:05:31;2.00;;;2.00;;
20906;SDS011;10613;50.966;5.814;2023-12-28T03:09:38;2.75;;;2.00;;
20906;SDS011;10613;50.966;5.814;2023-12-28T03:13:59;4.00;;;4.00;;
20906;SDS011;10613;50.966;5.814;2023-12-28T03:18:07;4.00;;;4.00;;
20906;SDS011;10613;50.966;5.814;2023-12-28T03:22:21;2.00;;;2.00;;
20906;SDS011;10613;50.966;5.814;2023-12-28T03:26:28;4.75;;;2.50;;
20906;SDS011;10613;50.966;5.814;2023-12-28T03:30:36;3.25;;;3.25;;
20906;SDS011;10613;50.966;5.814;2023-12-28T03:34:43;4.00;;;4.00;;
20906;SDS011;10613;50.966;5.814;2023-12-28T03:38:50;3.00;;;3.00;;
20906;SDS011;10613;50.966;5.814;2023-12-28T03:42:57;4.50;;;3.00;;
20906;SDS011;10613;50.966;5.814;2023-12-28T03:47:04;2.50;;;2.00;;
20906;SDS011;10613;50.966;5.814;2023-12-28T03:51:15;2.00;;;2.00;;
20906;SDS011;10613;50.966;5.814;2023-12-28T03:55:22;4.75;;;4.75;;
20906;SDS011;10613;50.966;5.814;2023-12-28T03:59:29;2.00;;;2.00;;
20906;SDS011;10613;50.966;5.814;2023-12-28T04:03:36;3.50;;;3.50;;
20906;SDS011;10613;50.966;5.814;2023-12-28T04:07:43;3.50;;;3.50;;
20906;SDS011;10613;50.966;5.814;2023-12-28T04:11:50;2.00;;;2.00;;
20906;SDS011;10613;50.966;5.814;2023-12-28T04:15:57;1.25;;;1.25;;
20906;SDS011;10613;50.966;5.814;2023-12-28T04:20:05;2.50;;;2.50;;
20906;SDS011;10613;50.966;5.814;2023-12-28T04:24:12;2.00;;;2.00;;
20906;SDS011;10613;50.966;5.814;2023-12-28T04:28:20;3.50;;;3.50;;
20906;SDS011;10613;50.966;5.814;2023-12-28T04:32:26;2.00;;;2.00;;
20906;SDS011;10613;50.966;5.814;2023-12-28T04:36:40;2.00;;;2.00;;
20906;SDS011;10613;50.966;5.814;2023-12-28T04:40:47;4.00;;;4.00;;
20906;SDS011;10613;50.966;5.814;2023-12-28T04:44:54;2.50;;;2.50;;
20906;SDS011;10613;50.966;5.814;2023-12-28T04:49:01;1.25;;;1.25;;
20906;SDS011;10613;50.966;5.814;2023-12-28T04:53:08;2.00;;;2.00;;
20906;SDS011;10613;50.966;5.814;2023-12-28T04:57:16;1.00;;;1.00;;
20906;SDS011;10613;50.966;5.814;2023-12-28T05:01:23;2.50;;;2.50;;
20906;SDS011;10613;50.966;5.814;2023-12-28T05:05:32;3.50;;;3.50;;
20906;SDS011;10613;50.966;5.814;2023-12-28T05:09:38;4.00;;;3.75;;
20906;SDS011;10613;50.966;5.814;2023-12-28T05:13:45;2.50;;;2.50;;
20906;SDS011;10613;50.966;5.814;2023-12-28T05:17:52;4.25;;;4.25;;
20906;SDS011;10613;50.966;5.814;2023-12-28T05:21:59;2.00;;;2.00;;
20906;SDS011;10613;50.966;5.814;2023-12-28T05:26:10;2.00;;;2.00;;
20906;SDS011;10613;50.966;5.814;2023-12-28T05:30:18;2.00;;;2.00;;
20906;SDS011;10613;50.966;5.814;2023-12-28T05:34:25;2.00;;;2.00;;
20906;SDS011;10613;50.966;5.814;2023-12-28T05:38:32;1.25;;;1.25;;
20906;SDS011;10613;50.966;5.814;2023-12-28T05:42:39;1.75;;;1.75;;
20906;SDS011;10613;50.966;5.814;2023-12-28T05:46:47;2.00;;;2.00;;
20906;SDS011;10613;50.966;5.814;2023-12-28T05:50:53;3.00;;;3.00;;
20906;SDS011;10613;50.966;5.814;2023-12-28T05:55:00;2.00;;;2.00;;
20906;SDS011;10613;50.966;5.814;2023-12-28T05:59:07;4.00;;;4.00;;
20906;SDS011;10613;50.966;5.814;2023-12-28T06:03:21;4.00;;;4.00;;
20906;SDS011;10613;50.966;5.814;2023-12-28T06:07:28;2.50;;;2.50;;
20906;SDS011;10613;50.966;5.814;2023-12-28T06:11:35;2.25;;;1.75;;
20906;SDS011;10613;50.966;5.814;2023-12-28T06:15:43;2.00;;;2.00;;
20906;SDS011;10613;50.966;5.814;2023-12-28T06:19:49;2.00;;;2.00;;
20906;SDS011;10613;50.966;5.814;2023-12-28T06:23:56;3.75;;;2.00;;
20906;SDS011;10613;50.966;5.814;2023-12-28T06:28:04;2.00;;;2.00;;
20906;SDS011;10613;50.966;5.814;2023-12-28T06:32:11;5.00;;;5.00;;
20906;SDS011;10613;50.966;5.814;2023-12-28T06:36:18;2.00;;;2.00;;
20906;SDS011;10613;50.966;5.814;2023-12-28T06:40:26;2.00;;;2.00;;
20906;SDS011;10613;50.966;5.814;2023-12-28T06:44:33;2.00;;;2.00;;
20906;SDS011;10613;50.966;5.814;2023-12-28T06:48:40;1.50;;;1.50;;
20906;SDS011;10613;50.966;5.814;2023-12-28T06:52:47;1.00;;;1.00;;
20906;SDS011;10613;50.966;5.814;2023-12-28T06:56:54;3.50;;;3.50;;
20906;SDS011;10613;50.966;5.814;2023-12-28T07:01:04;4.00;;;4.00;;
20906;SDS011;10613;50.966;5.814;2023-12-28T07:05:11;4.00;;;4.00;;
20906;SDS011;10613;50.966;5.814;2023-12-28T07:09:25;3.00;;;3.00;;
20906;SDS011;10613;50.966;5.814;2023-12-28T07:13:33;3.00;;;3.00;;
20906;SDS011;10613;50.966;5.814;2023-12-28T07:17:40;4.00;;;4.00;;
20906;SDS011;10613;50.966;5.814;2023-12-28T07:21:47;3.75;;;3.75;;
20906;SDS011;10613;50.966;5.814;2023-12-28T07:25:54;1.25;;;1.25;;
20906;SDS011;10613;50.966;5.814;2023-12-28T07:30:01;2.00;;;2.00;;
20906;SDS011;10613;50.966;5.814;2023-12-28T07:34:08;2.00;;;2.00;;
20906;SDS011;10613;50.966;5.814;2023-12-28T07:38:15;1.75;;;1.75;;
20906;SDS011;10613;50.966;5.814;2023-12-28T07:42:22;2.00;;;2.00;;
20906;SDS011;10613;50.966;5.814;2023-12-28T07:46:29;2.00;;;2.00;;
20906;SDS011;10613;50.966;5.814;2023-12-28T07:50:36;2.00;;;2.00;;
20906;SDS011;10613;50.966;5.814;2023-12-28T07:54:43;1.75;;;1.75;;
20906;SDS011;10613;50.966;5.814;2023-12-28T07:58:50;1.00;;;1.00;;
20906;SDS011;10613;50.966;5.814;2023-12-28T08:02:57;3.25;;;2.50;;
20906;SDS011;10613;50.966;5.814;2023-12-28T08:07:04;4.50;;;4.50;;
20906;SDS011;10613;50.966;5.814;2023-12-28T08:11:11;4.25;;;4.25;;
20906;SDS011;10613;50.966;5.814;2023-12-28T08:15:19;3.00;;;3.00;;
20906;SDS011;10613;50.966;5.814;2023-12-28T08:19:26;2.00;;;2.00;;
20906;SDS011;10613;50.966;5.814;2023-12-28T08:23:33;2.00;;;2.00;;
20906;SDS011;10613;50.966;5.814;2023-12-28T08:27:40;1.50;;;1.50;;
20906;SDS011;10613;50.966;5.814;2023-12-28T08:31:47;3.00;;;2.00;;
20906;SDS011;10613;50.966;5.814;2023-12-28T08:35:54;2.00;;;2.00;;
20906;SDS011;10613;50.966;5.814;2023-12-28T08:40:01;2.00;;;2.00;;
20906;SDS011;10613;50.966;5.814;2023-12-28T08:44:08;1.00;;;1.00;;
20906;SDS011;10613;50.966;5.814;2023-12-28T08:48:15;2.00;;;2.00;;
20906;SDS011;10613;50.966;5.814;2023-12-28T08:52:22;4.00;;;4.00;;
20906;SDS011;10613;50.966;5.814;2023-12-28T08:56:29;4.00;;;4.00;;
20906;SDS011;10613;50.966;5.814;2023-12-28T09:00:37;3.75;;;2.50;;
20906;SDS011;10613;50.966;5.814;2023-12-28T09:04:44;4.00;;;4.00;;
20906;SDS011;10613;50.966;5.814;2023-12-28T09:08:58;3.50;;;3.00;;
20906;SDS011;10613;50.966;5.814;2023-12-28T09:13:05;2.00;;;2.00;;
20906;SDS011;10613;50.966;5.814;2023-12-28T09:17:12;2.00;;;2.00;;
20906;SDS011;10613;50.966;5.814;2023-12-28T09:21:19;3.00;;;2.00;;
20906;SDS011;10613;50.966;5.814;2023-12-28T09:25:26;4.00;;;4.00;;
20906;SDS011;10613;50.966;5.814;2023-12-28T09:29:34;2.00;;;2.00;;
20906;SDS011;10613;50.966;5.814;2023-12-28T09:33:41;3.00;;;3.00;;
20906;SDS011;10613;50.966;5.814;2023-12-28T09:37:48;3.00;;;3.00;;
20906;SDS011;10613;50.966;5.814;2023-12-28T09:41:55;2.00;;;2.00;;
20906;SDS011;10613;50.966;5.814;2023-12-28T09:46:08;1.25;;;1.25;;
20906;SDS011;10613;50.966;5.814;2023-12-28T09:50:16;2.00;;;2.00;;
20906;SDS011;10613;50.966;5.814;2023-12-28T09:54:24;3.00;;;3.00;;
20906;SDS011;10613;50.966;5.814;2023-12-28T09:58:31;4.50;;;4.50;;
20906;SDS011;10613;50.966;5.814;2023-12-28T10:02:40;3.00;;;3.00;;
20906;SDS011;10613;50.966;5.814;2023-12-28T10:06:50;2.50;;;2.00;;
20906;SDS011;10613;50.966;5.814;2023-12-28T10:10:58;2.00;;;2.00;;
20906;SDS011;10613;50.966;5.814;2023-12-28T10:15:06;4.00;;;2.00;;
20906;SDS011;10613;50.966;5.814;2023-12-28T10:19:13;3.50;;;3.50;;
20906;SDS011;10613;50.966;5.814;2023-12-28T10:23:20;2.00;;;2.00;;
20906;SDS011;10613;50.966;5.814;2023-12-28T10:27:30;1.75;;;1.75;;
20906;SDS011;10613;50.966;5.814;2023-12-28T10:31:37;2.00;;;2.00;;
20906;SDS011;10613;50.966;5.814;2023-12-28T10:35:46;2.50;;;2.50;;
20906;SDS011;10613;50.966;5.814;2023-12-28T10:39:53;2.00;;;2.00;;
20906;SDS011;10613;50.966;5.814;2023-12-28T10:44:03;1.50;;;1.50;;
20906;SDS011;10613;50.966;5.814;2023-12-28T10:48:11;2.00;;;2.00;;
20906;SDS011;10613;50.966;5.814;2023-12-28T10:52:18;4.00;;;1.00;;
20906;SDS011;10613;50.966;5.814;2023-12-28T10:56:34;4.50;;;3.00;;
20906;SDS011;10613;50.966;5.814;2023-12-28T11:00:43;3.50;;;3.50;;
20906;SDS011;10613;50.966;5.814;2023-12-28T11:04:53;2.00;;;2.00;;
20906;SDS011;10613;50.966;5.814;2023-12-28T11:09:00;2.00;;;2.00;;
20906;SDS011;10613;50.966;5.814;2023-12-28T11:13:07;2.00;;;2.00;;
20906;SDS011;10613;50.966;5.814;2023-12-28T11:17:14;2.00;;;2.00;;
20906;SDS011;10613;50.966;5.814;2023-12-28T11:21:22;2.00;;;2.00;;
20906;SDS011;10613;50.966;5.814;2023-12-28T11:25:30;4.25;;;4.00;;
20906;SDS011;10613;50.966;5.814;2023-12-28T11:29:38;2.00;;;2.00;;
20906;SDS011;10613;50.966;5.814;2023-12-28T11:33:50;3.00;;;3.00;;
20906;SDS011;10613;50.966;5.814;2023-12-28T11:37:58;3.50;;;1.25;;
20906;SDS011;10613;50.966;5.814;2023-12-28T11:42:08;1.75;;;1.75;;
20906;SDS011;10613;50.966;5.814;2023-12-28T11:46:15;2.00;;;2.00;;
20906;SDS011;10613;50.966;5.814;2023-12-28T11:50:23;1.75;;;1.75;;
20906;SDS011;10613;50.966;5.814;2023-12-28T11:54:30;1.00;;;1.00;;
20906;SDS011;10613;50.966;5.814;2023-12-28T11:58:37;2.50;;;2.00;;
20906;SDS011;10613;50.966;5.814;2023-12-28T12:02:44;1.25;;;1.25;;
20906;SDS011;10613;50.966;5.814;2023-12-28T12:07:01;3.25;;;1.75;;
20906;SDS011;10613;50.966;5.814;2023-12-28T12:11:09;1.00;;;1.00;;
20906;SDS011;10613;50.966;5.814;2023-12-28T12:15:16;4.00;;;4.00;;
20906;SDS011;10613;50.966;5.814;2023-12-28T12:19:23;2.00;;;2.00;;
20906;SDS011;10613;50.966;5.814;2023-12-28T12:23:32;2.00;;;2.00;;
20906;SDS011;10613;50.966;5.814;2023-12-28T12:27:39;3.00;;;3.00;;
20906;SDS011;10613;50.966;5.814;2023-12-28T12:31:46;2.00;;;2.00;;
20906;SDS011;10613;50.966;5.814;2023-12-28T12:35:54;4.75;;;2.25;;
20906;SDS011;10613;50.966;5.814;2023-12-28T12:40:02;1.75;;;1.75;;
20906;SDS011;10613;50.966;5.814;2023-12-28T12:44:10;1.75;;;1.75;;
20906;SDS011;10613;50.966;5.814;2023-12-28T12:48:17;1.00;;;1.00;;
20906;SDS011;10613;50.966;5.814;2023-12-28T12:52:25;4.25;;;2.50;;
20906;SDS011;10613;50.966;5.814;2023-12-28T12:56:32;1.00;;;1.00;;
20906;SDS011;10613;50.966;5.814;2023-12-28T13:00:39;2.00;;;2.00;;
20906;SDS011;10613;50.966;5.814;2023-12-28T13:04:46;2.00;;;2.00;;
20906;SDS011;10613;50.966;5.814;2023-12-28T13:08:53;4.25;;;4.25;;
20906;SDS011;10613;50.966;5.814;2023-12-28T13:13:00;5.50;;;3.00;;
20906;SDS011;10613;50.966;5.814;2023-12-28T13:17:07;4.50;;;2.50;;
20906;SDS011;10613;50.966;5.814;2023-12-28T13:21:14;1.25;;;1.25;;
20906;SDS011;10613;50.966;5.814;2023-12-28T13:25:21;2.00;;;2.00;;
20906;SDS011;10613;50.966;5.814;2023-12-28T13:29:28;1.25;;;1.25;;
20906;SDS011;10613;50.966;5.814;2023-12-28T13:33:36;2.00;;;2.00;;
20906;SDS011;10613;50.966;5.814;2023-12-28T13:37:43;1.50;;;1.50;;
20906;SDS011;10613;50.966;5.814;2023-12-28T13:41:50;1.50;;;1.50;;
20906;SDS011;10613;50.966;5.814;2023-12-28T13:45:57;1.00;;;1.00;;
20906;SDS011;10613;50.966;5.814;2023-12-28T13:50:04;1.50;;;1.50;;
20906;SDS011;10613;50.966;5.814;2023-12-28T13:54:13;1.00;;;1.00;;
20906;SDS011;10613;50.966;5.814;2023-12-28T13:58:20;1.00;;;1.00;;
20906;SDS011;10613;50.966;5.814;2023-12-28T14:02:27;2.00;;;2.00;;
20906;SDS011;10613;50.966;5.814;2023-12-28T14:06:34;2.00;;;2.00;;
20906;SDS011;10613;50.966;5.814;2023-12-28T14:10:41;1.50;;;1.25;;
20906;SDS011;10613;50.966;5.814;2023-12-28T14:14:48;2.00;;;2.00;;
20906;SDS011;10613;50.966;5.814;2023-12-28T14:18:55;2.00;;;2.00;;
20906;SDS011;10613;50.966;5.814;2023-12-28T14:23:02;4.00;;;4.00;;
20906;SDS011;10613;50.966;5.814;2023-12-28T14:27:09;1.00;;;1.00;;
20906;SDS011;10613;50.966;5.814;2023-12-28T14:31:18;2.00;;;2.00;;
20906;SDS011;10613;50.966;5.814;2023-12-28T14:35:25;1.00;;;1.00;;
20906;SDS011;10613;50.966;5.814;2023-12-28T14:39:32;2.00;;;2.00;;
20906;SDS011;10613;50.966;5.814;2023-12-28T14:43:39;1.00;;;1.00;;
20906;SDS011;10613;50.966;5.814;2023-12-28T14:47:46;1.00;;;1.00;;
20906;SDS011;10613;50.966;5.814;2023-12-28T14:51:53;4.25;;;4.25;;
20906;SDS011;10613;50.966;5.814;2023-12-28T14:56:00;5.00;;;5.00;;
20906;SDS011;10613;50.966;5.814;2023-12-28T15:00:07;7.75;;;7.00;;
20906;SDS011;10613;50.966;5.814;2023-12-28T15:04:16;4.00;;;4.00;;
20906;SDS011;10613;50.966;5.814;2023-12-28T15:08:30;4.50;;;4.50;;
20906;SDS011;10613;50.966;5.814;2023-12-28T15:12:37;3.00;;;3.00;;
20906;SDS011;10613;50.966;5.814;2023-12-28T15:16:44;6.50;;;6.50;;
20906;SDS011;10613;50.966;5.814;2023-12-28T15:20:51;2.50;;;2.50;;
20906;SDS011;10613;50.966;5.814;2023-12-28T15:24:58;7.25;;;7.25;;
20906;SDS011;10613;50.966;5.814;2023-12-28T15:29:05;5.00;;;5.00;;
20906;SDS011;10613;50.966;5.814;2023-12-28T15:33:12;4.00;;;4.00;;
20906;SDS011;10613;50.966;5.814;2023-12-28T15:37:19;4.75;;;4.75;;
20906;SDS011;10613;50.966;5.814;2023-12-28T15:41:26;7.25;;;7.00;;
20906;SDS011;10613;50.966;5.814;2023-12-28T15:45:33;7.00;;;7.00;;
20906;SDS011;10613;50.966;5.814;2023-12-28T15:49:41;5.50;;;5.50;;
20906;SDS011;10613;50.966;5.814;2023-12-28T15:53:48;5.50;;;5.00;;
20906;SDS011;10613;50.966;5.814;2023-12-28T15:57:55;8.00;;;6.50;;
20906;SDS011;10613;50.966;5.814;2023-12-28T16:02:02;7.75;;;6.50;;
20906;SDS011;10613;50.966;5.814;2023-12-28T16:06:09;7.75;;;7.75;;
20906;SDS011;10613;50.966;5.814;2023-12-28T16:10:17;7.00;;;5.00;;
20906;SDS011;10613;50.966;5.814;2023-12-28T16:14:24;7.50;;;6.00;;
20906;SDS011;10613;50.966;5.814;2023-12-28T16:18:31;7.00;;;5.50;;
20906;SDS011;10613;50.966;5.814;2023-12-28T16:22:38;5.00;;;5.00;;
20906;SDS011;10613;50.966;5.814;2023-12-28T16:26:45;7.25;;;6.00;;
20906;SDS011;10613;50.966;5.814;2023-12-28T16:30:52;4.75;;;4.75;;
20906;SDS011;10613;50.966;5.814;2023-12-28T16:34:59;8.50;;;7.25;;
20906;SDS011;10613;50.966;5.814;2023-12-28T16:39:06;5.00;;;5.00;;
20906;SDS011;10613;50.966;5.814;2023-12-28T16:43:14;6.50;;;6.50;;
20906;SDS011;10613;50.966;5.814;2023-12-28T16:47:21;7.00;;;7.00;;
20906;SDS011;10613;50.966;5.814;2023-12-28T16:51:28;8.00;;;8.00;;
20906;SDS011;10613;50.966;5.814;2023-12-28T16:55:35;7.50;;;7.50;;
20906;SDS011;10613;50.966;5.814;2023-12-28T16:59:42;7.50;;;7.50;;
20906;SDS011;10613;50.966;5.814;2023-12-28T17:03:52;6.00;;;6.00;;
20906;SDS011;10613;50.966;5.814;2023-12-28T17:08:00;7.75;;;7.75;;
20906;SDS011;10613;50.966;5.814;2023-12-28T17:12:13;5.50;;;5.50;;
20906;SDS011;10613;50.966;5.814;2023-12-28T17:16:22;6.75;;;4.25;;
20906;SDS011;10613;50.966;5.814;2023-12-28T17:20:29;7.25;;;7.25;;
20906;SDS011;10613;50.966;5.814;2023-12-28T17:24:40;7.00;;;7.00;;
20906;SDS011;10613;50.966;5.814;2023-12-28T17:29:04;6.00;;;5.00;;
20906;SDS011;10613;50.966;5.814;2023-12-28T17:33:16;7.00;;;7.00;;
20906;SDS011;10613;50.966;5.814;2023-12-28T17:37:23;5.50;;;5.50;;
20906;SDS011;10613;50.966;5.814;2023-12-28T17:41:30;7.25;;;7.25;;
20906;SDS011;10613;50.966;5.814;2023-12-28T17:49:52;5.00;;;5.00;;
20906;SDS011;10613;50.966;5.814;2023-12-28T17:53:59;5.00;;;5.00;;
20906;SDS011;10613;50.966;5.814;2023-12-28T17:58:06;5.00;;;5.00;;
20906;SDS011;10613;50.966;5.814;2023-12-28T18:02:13;6.00;;;6.00;;
20906;SDS011;10613;50.966;5.814;2023-12-28T18:06:27;4.50;;;4.50;;
20906;SDS011;10613;50.966;5.814;2023-12-28T18:10:34;6.00;;;5.00;;
20906;SDS011;10613;50.966;5.814;2023-12-28T18:14:41;7.00;;;5.00;;
20906;SDS011;10613;50.966;5.814;2023-12-28T18:18:48;4.75;;;4.75;;
20906;SDS011;10613;50.966;5.814;2023-12-28T18:22:55;5.00;;;5.00;;
20906;SDS011;10613;50.966;5.814;2023-12-28T18:27:02;6.25;;;6.25;;
20906;SDS011;10613;50.966;5.814;2023-12-28T18:31:09;7.00;;;5.00;;
20906;SDS011;10613;50.966;5.814;2023-12-28T18:35:19;5.00;;;5.00;;
20906;SDS011;10613;50.966;5.814;2023-12-28T18:39:26;5.00;;;5.00;;
20906;SDS011;10613;50.966;5.814;2023-12-28T18:43:34;8.50;;;5.50;;
20906;SDS011;10613;50.966;5.814;2023-12-28T18:47:41;5.00;;;5.00;;
20906;SDS011;10613;50.966;5.814;2023-12-28T18:51:48;5.00;;;5.00;;
20906;SDS011;10613;50.966;5.814;2023-12-28T18:55:55;6.00;;;6.00;;
20906;SDS011;10613;50.966;5.814;2023-12-28T19:00:02;7.00;;;7.00;;
20906;SDS011;10613;50.966;5.814;2023-12-28T19:04:09;8.00;;;8.00;;
20906;SDS011;10613;50.966;5.814;2023-12-28T19:08:23;4.00;;;4.00;;
20906;SDS011;10613;50.966;5.814;2023-12-28T19:12:30;7.00;;;5.00;;
20906;SDS011;10613;50.966;5.814;2023-12-28T19:16:37;4.50;;;4.50;;
20906;SDS011;10613;50.966;5.814;2023-12-28T19:20:44;5.00;;;5.00;;
20906;SDS011;10613;50.966;5.814;2023-12-28T19:24:52;9.00;;;6.75;;
20906;SDS011;10613;50.966;5.814;2023-12-28T19:28:59;7.50;;;7.50;;
20906;SDS011;10613;50.966;5.814;2023-12-28T19:33:06;7.00;;;5.00;;
20906;SDS011;10613;50.966;5.814;2023-12-28T19:37:13;4.75;;;4.50;;
20906;SDS011;10613;50.966;5.814;2023-12-28T19:41:20;4.75;;;4.75;;
20906;SDS011;10613;50.966;5.814;2023-12-28T19:45:27;5.50;;;5.50;;
20906;SDS011;10613;50.966;5.814;2023-12-28T19:49:34;5.25;;;4.75;;
20906;SDS011;10613;50.966;5.814;2023-12-28T19:53:42;5.00;;;5.00;;
20906;SDS011;10613;50.966;5.814;2023-12-28T19:57:52;4.00;;;4.00;;
20906;SDS011;10613;50.966;5.814;2023-12-28T20:01:59;7.50;;;4.50;;
20906;SDS011;10613;50.966;5.814;2023-12-28T20:06:07;4.00;;;4.00;;
20906;SDS011;10613;50.966;5.814;2023-12-28T20:10:14;4.00;;;4.00;;
20906;SDS011;10613;50.966;5.814;2023-12-28T20:14:22;5.00;;;5.00;;
20906;SDS011;10613;50.966;5.814;2023-12-28T20:18:29;6.00;;;5.00;;
20906;SDS011;10613;50.966;5.814;2023-12-28T20:22:36;9.50;;;9.50;;
20906;SDS011;10613;50.966;5.814;2023-12-28T20:26:43;7.00;;;7.00;;
20906;SDS011;10613;50.966;5.814;2023-12-28T20:30:50;4.50;;;4.00;;
20906;SDS011;10613;50.966;5.814;2023-12-28T20:35:00;3.00;;;3.00;;
20906;SDS011;10613;50.966;5.814;2023-12-28T20:39:06;3.75;;;3.75;;
20906;SDS011;10613;50.966;5.814;2023-12-28T20:43:13;4.00;;;4.00;;
20906;SDS011;10613;50.966;5.814;2023-12-28T20:47:21;4.00;;;4.00;;
20906;SDS011;10613;50.966;5.814;2023-12-28T20:51:27;4.00;;;4.00;;
20906;SDS011;10613;50.966;5.814;2023-12-28T20:55:34;4.50;;;4.50;;
20906;SDS011;10613;50.966;5.814;2023-12-28T20:59:41;3.50;;;3.50;;
20906;SDS011;10613;50.966;5.814;2023-12-28T21:03:52;5.00;;;5.00;;
20906;SDS011;10613;50.966;5.814;2023-12-28T21:08:06;5.00;;;5.00;;
20906;SDS011;10613;50.966;5.814;2023-12-28T21:12:12;6.00;;;6.00;;
20906;SDS011;10613;50.966;5.814;2023-12-28T21:16:28;4.25;;;4.25;;
20906;SDS011;10613;50.966;5.814;2023-12-28T21:20:36;2.50;;;2.50;;
20906;SDS011;10613;50.966;5.814;2023-12-28T21:24:42;4.75;;;4.75;;
20906;SDS011;10613;50.966;5.814;2023-12-28T21:28:50;3.00;;;3.00;;
20906;SDS011;10613;50.966;5.814;2023-12-28T21:32:57;4.25;;;4.25;;
20906;SDS011;10613;50.966;5.814;2023-12-28T21:37:03;6.75;;;6.75;;
20906;SDS011;10613;50.966;5.814;2023-12-28T21:41:10;3.50;;;3.50;;
20906;SDS011;10613;50.966;5.814;2023-12-28T21:45:18;4.25;;;4.25;;
20906;SDS011;10613;50.966;5.814;2023-12-28T21:49:25;6.00;;;6.00;;
20906;SDS011;10613;50.966;5.814;2023-12-28T21:53:32;4.50;;;4.50;;
20906;SDS011;10613;50.966;5.814;2023-12-28T21:57:39;6.50;;;5.00;;
20906;SDS011;10613;50.966;5.814;2023-12-28T22:01:45;5.00;;;5.00;;
20906;SDS011;10613;50.966;5.814;2023-12-28T22:05:53;7.00;;;5.00;;
20906;SDS011;10613;50.966;5.814;2023-12-28T22:10:00;5.00;;;5.00;;
20906;SDS011;10613;50.966;5.814;2023-12-28T22:14:07;5.25;;;5.25;;
20906;SDS011;10613;50.966;5.814;2023-12-28T22:18:14;3.50;;;3.50;;
20906;SDS011;10613;50.966;5.814;2023-12-28T22:22:21;3.50;;;3.50;;
20906;SDS011;10613;50.966;5.814;2023-12-28T22:26:28;7.00;;;5.00;;
20906;SDS011;10613;50.966;5.814;2023-12-28T22:30:35;5.00;;;5.00;;
20906;SDS011;10613;50.966;5.814;2023-12-28T22:34:42;2.00;;;2.00;;
20906;SDS011;10613;50.966;5.814;2023-12-28T22:38:49;2.00;;;2.00;;
20906;SDS011;10613;50.966;5.814;2023-12-28T22:42:56;4.00;;;4.00;;
20906;SDS011;10613;50.966;5.814;2023-12-28T22:47:03;4.00;;;4.00;;
20906;SDS011;10613;50.966;5.814;2023-12-28T22:51:10;5.00;;;5.00;;
20906;SDS011;10613;50.966;5.814;2023-12-28T22:55:17;5.75;;;5.75;;
20906;SDS011;10613;50.966;5.814;2023-12-28T22:59:24;5.50;;;5.50;;
20906;SDS011;10613;50.966;5.814;2023-12-28T23:03:31;4.50;;;4.50;;
20906;SDS011;10613;50.966;5.814;2023-12-28T23:07:38;4.50;;;4.50;;
20906;SDS011;10613;50.966;5.814;2023-12-28T23:11:45;4.00;;;4.00;;
20906;SDS011;10613;50.966;5.814;2023-12-28T23:15:52;5.00;;;5.00;;
20906;SDS011;10613;50.966;5.814;2023-12-28T23:19:59;4.50;;;4.50;;
20906;SDS011;10613;50.966;5.814;2023-12-28T23:24:06;2.00;;;2.00;;
20906;SDS011;10613;50.966;5.814;2023-12-28T23:28:13;4.50;;;4.50;;
20906;SDS011;10613;50.966;5.814;2023-12-28T23:32:20;3.00;;;3.00;;
20906;SDS011;10613;50.966;5.814;2023-12-28T23:36:27;3.50;;;3.50;;
20906;SDS011;10613;50.966;5.814;2023-12-28T23:40:34;5.00;;;5.00;;
20906;SDS011;10613;50.966;5.814;2023-12-28T23:44:41;4.75;;;4.75;;
20906;SDS011;10613;50.966;5.814;2023-12-28T23:48:48;4.25;;;4.25;;
20906;SDS011;10613;50.966;5.814;2023-12-28T23:52:55;4.00;;;4.00;;
20906;SDS011;10613;50.966;5.814;2023-12-28T23:57:02;2.50;;;2.50;;
